sensor_id;sensor_type;location;lat;lon;timestamp;P1;durP1;ratioP1;P2;durP2;ratioP2
30000;SDS011;16845;48.670;9.000;2022-11-06T00:00:07;23.90;;;15.50;;
30000;SDS011;16845;48.670;9.000;2022-11-06T00:02:36;25.10;;;16.00;;
30000;SDS011;16845;48.670;9.000;2022-11-06T00:05:04;28.60;;;17.70;;
30000;SDS011;16845;48.670;9.000;2022-11-06T00:07:50;25.15;;;15.88;;
30000;SDS011;16845;48.670;9.000;2022-11-06T00:10:20;24.90;;;15.68;;
30000;SDS011;16845;48.670;9.000;2022-11-06T00:12:48;22.88;;;14.85;;
30000;SDS011;16845;48.670;9.000;2022-11-06T00:15:16;23.70;;;15.68;;
30000;SDS011;16845;48.670;9.000;2022-11-06T00:17:47;29.58;;;15.60;;
30000;SDS011;16845;48.670;9.000;2022-11-06T00:20:15;28.75;;;16.15;;
30000;SDS011;16845;48.670;9.000;2022-11-06T00:22:43;30.05;;;17.45;;
30000;SDS011;16845;48.670;9.000;2022-11-06T00:25:11;22.60;;;15.38;;
30000;SDS011;16845;48.670;9.000;2022-11-06T00:27:41;24.88;;;15.98;;
30000;SDS011;16845;48.670;9.000;2022-11-06T00:30:09;24.92;;;15.23;;
30000;SDS011;16845;48.670;9.000;2022-11-06T00:32:38;24.55;;;16.25;;
30000;SDS011;16845;48.670;9.000;2022-11-06T00:35:06;24.15;;;15.35;;
30000;SDS011;16845;48.670;9.000;2022-11-06T00:37:34;24.95;;;15.43;;
30000;SDS011;16845;48.670;9.000;2022-11-06T00:40:02;30.20;;;17.65;;
30000;SDS011;16845;48.670;9.000;2022-11-06T00:42:31;25.30;;;15.43;;
30000;SDS011;16845;48.670;9.000;2022-11-06T00:45:01;26.33;;;17.30;;
30000;SDS011;16845;48.670;9.000;2022-11-06T00:47:29;27.35;;;17.20;;
30000;SDS011;16845;48.670;9.000;2022-11-06T00:49:57;29.92;;;16.55;;
30000;SDS011;16845;48.670;9.000;2022-11-06T00:52:26;26.48;;;16.92;;
30000;SDS011;16845;48.670;9.000;2022-11-06T00:54:55;28.05;;;17.17;;
30000;SDS011;16845;48.670;9.000;2022-11-06T00:57:23;27.90;;;16.55;;
30000;SDS011;16845;48.670;9.000;2022-11-06T00:59:51;31.48;;;16.90;;
30000;SDS011;16845;48.670;9.000;2022-11-06T01:02:20;25.75;;;16.25;;
30000;SDS011;16845;48.670;9.000;2022-11-06T01:04:48;31.60;;;16.08;;
30000;SDS011;16845;48.670;9.000;2022-11-06T01:07:17;27.08;;;16.27;;
30000;SDS011;16845;48.670;9.000;2022-11-06T01:09:45;25.40;;;15.82;;
30000;SDS011;16845;48.670;9.000;2022-11-06T01:12:13;26.75;;;17.70;;
30000;SDS011;16845;48.670;9.000;2022-11-06T01:14:42;26.45;;;16.67;;
30000;SDS011;16845;48.670;9.000;2022-11-06T01:17:10;25.85;;;17.08;;
30000;SDS011;16845;48.670;9.000;2022-11-06T01:19:40;24.70;;;16.67;;
30000;SDS011;16845;48.670;9.000;2022-11-06T01:22:08;25.67;;;15.55;;
30000;SDS011;16845;48.670;9.000;2022-11-06T01:24:36;26.00;;;15.00;;
30000;SDS011;16845;48.670;9.000;2022-11-06T01:27:04;25.63;;;15.55;;
30000;SDS011;16845;48.670;9.000;2022-11-06T01:29:52;25.83;;;14.40;;
30000;SDS011;16845;48.670;9.000;2022-11-06T01:32:21;17.77;;;12.77;;
30000;SDS011;16845;48.670;9.000;2022-11-06T01:34:50;22.52;;;14.75;;
30000;SDS011;16845;48.670;9.000;2022-11-06T01:37:18;21.70;;;14.98;;
30000;SDS011;16845;48.670;9.000;2022-11-06T01:39:47;27.02;;;16.52;;
30000;SDS011;16845;48.670;9.000;2022-11-06T01:42:16;24.45;;;16.38;;
30000;SDS011;16845;48.670;9.000;2022-11-06T01:47:52;24.02;;;16.10;;
30000;SDS011;16845;48.670;9.000;2022-11-06T01:50:22;25.77;;;16.45;;
30000;SDS011;16845;48.670;9.000;2022-11-06T01:52:50;28.70;;;16.77;;
30000;SDS011;16845;48.670;9.000;2022-11-06T01:55:20;25.83;;;16.60;;
30000;SDS011;16845;48.670;9.000;2022-11-06T01:57:50;21.75;;;15.32;;
30000;SDS011;16845;48.670;9.000;2022-11-06T02:00:20;26.88;;;15.82;;
30000;SDS011;16845;48.670;9.000;2022-11-06T02:02:48;25.38;;;14.60;;
30000;SDS011;16845;48.670;9.000;2022-11-06T02:05:16;28.27;;;15.82;;
30000;SDS011;16845;48.670;9.000;2022-11-06T02:07:46;21.83;;;13.65;;
30000;SDS011;16845;48.670;9.000;2022-11-06T02:10:15;22.00;;;13.82;;
30000;SDS011;16845;48.670;9.000;2022-11-06T02:12:52;23.05;;;12.85;;
30000;SDS011;16845;48.670;9.000;2022-11-06T02:15:32;20.70;;;12.40;;
30000;SDS011;16845;48.670;9.000;2022-11-06T02:24:17;18.00;;;11.23;;
30000;SDS011;16845;48.670;9.000;2022-11-06T02:27:00;21.65;;;11.73;;
30000;SDS011;16845;48.670;9.000;2022-11-06T02:29:37;21.77;;;12.40;;
30000;SDS011;16845;48.670;9.000;2022-11-06T02:32:15;18.70;;;12.13;;
30000;SDS011;16845;48.670;9.000;2022-11-06T02:34:47;23.15;;;13.27;;
30000;SDS011;16845;48.670;9.000;2022-11-06T02:37:19;15.93;;;10.63;;
30000;SDS011;16845;48.670;9.000;2022-11-06T02:39:52;17.42;;;11.95;;
30000;SDS011;16845;48.670;9.000;2022-11-06T02:42:25;15.90;;;11.32;;
30000;SDS011;16845;48.670;9.000;2022-11-06T02:44:56;15.88;;;11.32;;
30000;SDS011;16845;48.670;9.000;2022-11-06T02:47:26;19.90;;;12.75;;
30000;SDS011;16845;48.670;9.000;2022-11-06T02:49:59;20.38;;;11.70;;
30000;SDS011;16845;48.670;9.000;2022-11-06T02:52:31;22.15;;;13.05;;
30000;SDS011;16845;48.670;9.000;2022-11-06T02:55:04;24.05;;;13.10;;
30000;SDS011;16845;48.670;9.000;2022-11-06T02:57:37;17.85;;;12.18;;
30000;SDS011;16845;48.670;9.000;2022-11-06T03:00:11;18.83;;;13.20;;
30000;SDS011;16845;48.670;9.000;2022-11-06T03:02:41;18.00;;;11.85;;
30000;SDS011;16845;48.670;9.000;2022-11-06T03:05:14;21.40;;;12.57;;
30000;SDS011;16845;48.670;9.000;2022-11-06T03:07:48;20.05;;;12.98;;
30000;SDS011;16845;48.670;9.000;2022-11-06T03:10:21;25.23;;;13.07;;
30000;SDS011;16845;48.670;9.000;2022-11-06T03:12:57;18.33;;;12.20;;
30000;SDS011;16845;48.670;9.000;2022-11-06T03:15:30;21.35;;;12.13;;
30000;SDS011;16845;48.670;9.000;2022-11-06T03:18:05;18.52;;;12.98;;
30000;SDS011;16845;48.670;9.000;2022-11-06T03:20:40;18.92;;;12.57;;
30000;SDS011;16845;48.670;9.000;2022-11-06T03:23:17;22.70;;;13.23;;
30000;SDS011;16845;48.670;9.000;2022-11-06T03:25:51;22.00;;;12.77;;
30000;SDS011;16845;48.670;9.000;2022-11-06T03:28:24;22.70;;;14.40;;
30000;SDS011;16845;48.670;9.000;2022-11-06T03:30:58;24.02;;;14.35;;
30000;SDS011;16845;48.670;9.000;2022-11-06T03:33:31;17.30;;;12.32;;
30000;SDS011;16845;48.670;9.000;2022-11-06T03:36:05;23.95;;;13.55;;
30000;SDS011;16845;48.670;9.000;2022-11-06T03:38:37;20.45;;;13.00;;
30000;SDS011;16845;48.670;9.000;2022-11-06T03:41:11;20.95;;;13.13;;
30000;SDS011;16845;48.670;9.000;2022-11-06T03:43:44;20.65;;;12.93;;
30000;SDS011;16845;48.670;9.000;2022-11-06T03:46:16;20.85;;;13.38;;
30000;SDS011;16845;48.670;9.000;2022-11-06T03:48:51;23.67;;;13.80;;
30000;SDS011;16845;48.670;9.000;2022-11-06T03:51:22;22.48;;;14.32;;
30000;SDS011;16845;48.670;9.000;2022-11-06T03:53:56;17.17;;;11.68;;
30000;SDS011;16845;48.670;9.000;2022-11-06T03:56:27;19.58;;;12.52;;
30000;SDS011;16845;48.670;9.000;2022-11-06T03:59:03;19.92;;;12.02;;
30000;SDS011;16845;48.670;9.000;2022-11-06T04:01:35;17.88;;;11.95;;
30000;SDS011;16845;48.670;9.000;2022-11-06T04:04:06;20.92;;;11.77;;
30000;SDS011;16845;48.670;9.000;2022-11-06T04:06:39;22.77;;;12.60;;
30000;SDS011;16845;48.670;9.000;2022-11-06T04:09:10;16.00;;;11.13;;
30000;SDS011;16845;48.670;9.000;2022-11-06T04:11:59;19.48;;;11.60;;
30000;SDS011;16845;48.670;9.000;2022-11-06T04:14:50;20.95;;;11.48;;
30000;SDS011;16845;48.670;9.000;2022-11-06T04:17:21;19.40;;;12.32;;
30000;SDS011;16845;48.670;9.000;2022-11-06T04:19:53;16.52;;;10.77;;
30000;SDS011;16845;48.670;9.000;2022-11-06T04:22:28;18.30;;;11.88;;
30000;SDS011;16845;48.670;9.000;2022-11-06T04:25:05;18.90;;;11.73;;
30000;SDS011;16845;48.670;9.000;2022-11-06T04:28:05;16.73;;;10.90;;
30000;SDS011;16845;48.670;9.000;2022-11-06T04:30:46;16.77;;;11.00;;
30000;SDS011;16845;48.670;9.000;2022-11-06T04:35:54;15.88;;;10.88;;
30000;SDS011;16845;48.670;9.000;2022-11-06T04:38:31;19.17;;;11.93;;
30000;SDS011;16845;48.670;9.000;2022-11-06T04:41:06;16.83;;;10.43;;
30000;SDS011;16845;48.670;9.000;2022-11-06T04:43:43;14.82;;;10.70;;
30000;SDS011;16845;48.670;9.000;2022-11-06T04:46:17;21.30;;;11.55;;
30000;SDS011;16845;48.670;9.000;2022-11-06T04:48:47;18.85;;;11.20;;
30000;SDS011;16845;48.670;9.000;2022-11-06T04:51:16;19.55;;;11.00;;
30000;SDS011;16845;48.670;9.000;2022-11-06T04:53:50;17.77;;;11.55;;
30000;SDS011;16845;48.670;9.000;2022-11-06T04:56:20;17.27;;;11.13;;
30000;SDS011;16845;48.670;9.000;2022-11-06T04:58:54;16.08;;;10.80;;
30000;SDS011;16845;48.670;9.000;2022-11-06T05:01:24;13.50;;;10.35;;
30000;SDS011;16845;48.670;9.000;2022-11-06T05:03:52;14.40;;;10.65;;
30000;SDS011;16845;48.670;9.000;2022-11-06T05:06:20;15.60;;;10.10;;
30000;SDS011;16845;48.670;9.000;2022-11-06T05:08:55;18.02;;;12.05;;
30000;SDS011;16845;48.670;9.000;2022-11-06T05:11:24;19.02;;;11.85;;
30000;SDS011;16845;48.670;9.000;2022-11-06T05:13:52;21.95;;;12.98;;
30000;SDS011;16845;48.670;9.000;2022-11-06T05:16:20;17.58;;;11.27;;
30000;SDS011;16845;48.670;9.000;2022-11-06T05:18:49;15.45;;;11.43;;
30000;SDS011;16845;48.670;9.000;2022-11-06T05:21:17;15.00;;;10.27;;
30000;SDS011;16845;48.670;9.000;2022-11-06T05:24:03;13.23;;;9.30;;
30000;SDS011;16845;48.670;9.000;2022-11-06T05:26:31;12.63;;;9.52;;
30000;SDS011;16845;48.670;9.000;2022-11-06T05:28:59;10.18;;;7.82;;
30000;SDS011;16845;48.670;9.000;2022-11-06T05:31:27;15.90;;;7.88;;
30000;SDS011;16845;48.670;9.000;2022-11-06T05:33:57;13.35;;;8.45;;
30000;SDS011;16845;48.670;9.000;2022-11-06T05:36:25;12.18;;;9.13;;
30000;SDS011;16845;48.670;9.000;2022-11-06T05:38:53;11.18;;;8.02;;
30000;SDS011;16845;48.670;9.000;2022-11-06T05:41:20;12.85;;;7.32;;
30000;SDS011;16845;48.670;9.000;2022-11-06T05:43:49;9.68;;;7.15;;
30000;SDS011;16845;48.670;9.000;2022-11-06T05:46:17;10.10;;;7.25;;
30000;SDS011;16845;48.670;9.000;2022-11-06T05:49:07;10.65;;;7.82;;
30000;SDS011;16845;48.670;9.000;2022-11-06T05:51:35;10.45;;;7.97;;
30000;SDS011;16845;48.670;9.000;2022-11-06T05:54:03;12.55;;;8.77;;
30000;SDS011;16845;48.670;9.000;2022-11-06T05:56:31;11.95;;;9.05;;
30000;SDS011;16845;48.670;9.000;2022-11-06T05:58:59;12.13;;;8.88;;
30000;SDS011;16845;48.670;9.000;2022-11-06T06:01:27;13.65;;;8.77;;
30000;SDS011;16845;48.670;9.000;2022-11-06T06:03:55;13.02;;;8.23;;
30000;SDS011;16845;48.670;9.000;2022-11-06T06:06:25;14.85;;;9.10;;
30000;SDS011;16845;48.670;9.000;2022-11-06T06:08:53;13.30;;;9.05;;
30000;SDS011;16845;48.670;9.000;2022-11-06T06:11:21;14.20;;;9.23;;
30000;SDS011;16845;48.670;9.000;2022-11-06T06:13:49;11.77;;;8.32;;
30000;SDS011;16845;48.670;9.000;2022-11-06T06:16:17;12.45;;;9.00;;
30000;SDS011;16845;48.670;9.000;2022-11-06T06:18:47;13.73;;;8.82;;
30000;SDS011;16845;48.670;9.000;2022-11-06T06:21:15;13.32;;;8.57;;
30000;SDS011;16845;48.670;9.000;2022-11-06T06:23:44;17.48;;;9.30;;
30000;SDS011;16845;48.670;9.000;2022-11-06T06:26:12;13.55;;;8.65;;
30000;SDS011;16845;48.670;9.000;2022-11-06T06:28:40;11.13;;;7.93;;
30000;SDS011;16845;48.670;9.000;2022-11-06T06:31:08;15.38;;;9.32;;
30000;SDS011;16845;48.670;9.000;2022-11-06T06:33:37;13.13;;;9.25;;
30000;SDS011;16845;48.670;9.000;2022-11-06T06:36:05;13.35;;;8.50;;
30000;SDS011;16845;48.670;9.000;2022-11-06T06:38:34;11.80;;;8.90;;
30000;SDS011;16845;48.670;9.000;2022-11-06T06:41:04;11.18;;;8.35;;
30000;SDS011;16845;48.670;9.000;2022-11-06T06:43:33;12.07;;;8.90;;
30000;SDS011;16845;48.670;9.000;2022-11-06T06:46:02;17.90;;;9.90;;
30000;SDS011;16845;48.670;9.000;2022-11-06T06:48:32;17.17;;;9.23;;
30000;SDS011;16845;48.670;9.000;2022-11-06T06:51:00;12.50;;;9.45;;
30000;SDS011;16845;48.670;9.000;2022-11-06T06:53:30;16.83;;;9.23;;
30000;SDS011;16845;48.670;9.000;2022-11-06T06:55:58;15.27;;;8.55;;
30000;SDS011;16845;48.670;9.000;2022-11-06T06:58:28;13.32;;;10.18;;
30000;SDS011;16845;48.670;9.000;2022-11-06T07:00:57;19.90;;;9.80;;
30000;SDS011;16845;48.670;9.000;2022-11-06T07:03:27;15.77;;;9.48;;
30000;SDS011;16845;48.670;9.000;2022-11-06T07:05:55;15.60;;;9.85;;
30000;SDS011;16845;48.670;9.000;2022-11-06T07:08:24;11.27;;;8.13;;
30000;SDS011;16845;48.670;9.000;2022-11-06T07:10:56;11.10;;;8.38;;
30000;SDS011;16845;48.670;9.000;2022-11-06T07:13:25;13.48;;;8.20;;
30000;SDS011;16845;48.670;9.000;2022-11-06T07:16:01;14.52;;;9.90;;
30000;SDS011;16845;48.670;9.000;2022-11-06T07:18:29;13.40;;;9.20;;
30000;SDS011;16845;48.670;9.000;2022-11-06T07:20:57;16.15;;;9.40;;
30000;SDS011;16845;48.670;9.000;2022-11-06T07:23:25;15.68;;;9.25;;
30000;SDS011;16845;48.670;9.000;2022-11-06T07:25:53;11.98;;;9.27;;
30000;SDS011;16845;48.670;9.000;2022-11-06T07:28:21;15.82;;;10.20;;
30000;SDS011;16845;48.670;9.000;2022-11-06T07:30:51;15.60;;;10.15;;
30000;SDS011;16845;48.670;9.000;2022-11-06T07:33:19;19.83;;;9.88;;
30000;SDS011;16845;48.670;9.000;2022-11-06T07:35:47;13.25;;;9.55;;
30000;SDS011;16845;48.670;9.000;2022-11-06T07:38:15;16.38;;;10.27;;
30000;SDS011;16845;48.670;9.000;2022-11-06T07:40:43;17.08;;;9.90;;
30000;SDS011;16845;48.670;9.000;2022-11-06T07:43:10;18.17;;;10.80;;
30000;SDS011;16845;48.670;9.000;2022-11-06T07:45:39;17.58;;;10.77;;
30000;SDS011;16845;48.670;9.000;2022-11-06T07:48:08;14.73;;;9.48;;
30000;SDS011;16845;48.670;9.000;2022-11-06T07:50:36;16.65;;;9.43;;
30000;SDS011;16845;48.670;9.000;2022-11-06T07:53:04;17.17;;;10.73;;
30000;SDS011;16845;48.670;9.000;2022-11-06T07:55:32;17.75;;;11.88;;
30000;SDS011;16845;48.670;9.000;2022-11-06T07:58:07;14.18;;;10.25;;
30000;SDS011;16845;48.670;9.000;2022-11-06T08:00:35;12.65;;;8.77;;
30000;SDS011;16845;48.670;9.000;2022-11-06T08:03:03;13.43;;;9.30;;
30000;SDS011;16845;48.670;9.000;2022-11-06T08:05:32;12.88;;;8.25;;
30000;SDS011;16845;48.670;9.000;2022-11-06T08:08:00;13.82;;;9.60;;
30000;SDS011;16845;48.670;9.000;2022-11-06T08:10:28;14.80;;;9.10;;
30000;SDS011;16845;48.670;9.000;2022-11-06T08:12:57;13.88;;;9.48;;
30000;SDS011;16845;48.670;9.000;2022-11-06T08:15:26;12.18;;;8.73;;
30000;SDS011;16845;48.670;9.000;2022-11-06T08:17:54;13.48;;;9.20;;
30000;SDS011;16845;48.670;9.000;2022-11-06T08:20:24;12.52;;;9.32;;
30000;SDS011;16845;48.670;9.000;2022-11-06T08:22:57;11.20;;;8.57;;
30000;SDS011;16845;48.670;9.000;2022-11-06T08:25:26;12.68;;;8.95;;
30000;SDS011;16845;48.670;9.000;2022-11-06T08:27:55;14.35;;;9.43;;
30000;SDS011;16845;48.670;9.000;2022-11-06T08:30:24;15.75;;;10.27;;
30000;SDS011;16845;48.670;9.000;2022-11-06T08:32:52;12.48;;;8.70;;
30000;SDS011;16845;48.670;9.000;2022-11-06T08:35:21;13.70;;;9.20;;
30000;SDS011;16845;48.670;9.000;2022-11-06T08:37:49;14.68;;;9.57;;
30000;SDS011;16845;48.670;9.000;2022-11-06T08:40:18;15.45;;;10.57;;
30000;SDS011;16845;48.670;9.000;2022-11-06T08:42:57;15.20;;;8.98;;
30000;SDS011;16845;48.670;9.000;2022-11-06T08:45:25;12.95;;;8.73;;
30000;SDS011;16845;48.670;9.000;2022-11-06T08:47:53;16.65;;;9.75;;
30000;SDS011;16845;48.670;9.000;2022-11-06T08:50:21;15.48;;;9.80;;
30000;SDS011;16845;48.670;9.000;2022-11-06T08:52:49;13.80;;;9.32;;
30000;SDS011;16845;48.670;9.000;2022-11-06T08:55:18;12.13;;;9.05;;
30000;SDS011;16845;48.670;9.000;2022-11-06T08:57:46;15.07;;;9.10;;
30000;SDS011;16845;48.670;9.000;2022-11-06T09:00:14;12.40;;;8.40;;
30000;SDS011;16845;48.670;9.000;2022-11-06T09:02:43;13.00;;;7.93;;
30000;SDS011;16845;48.670;9.000;2022-11-06T09:05:10;15.45;;;8.27;;
30000;SDS011;16845;48.670;9.000;2022-11-06T09:07:38;14.73;;;7.72;;
30000;SDS011;16845;48.670;9.000;2022-11-06T09:10:07;13.90;;;8.23;;
30000;SDS011;16845;48.670;9.000;2022-11-06T09:12:36;10.25;;;6.80;;
30000;SDS011;16845;48.670;9.000;2022-11-06T09:15:05;12.13;;;8.32;;
30000;SDS011;16845;48.670;9.000;2022-11-06T09:17:33;9.20;;;6.88;;
30000;SDS011;16845;48.670;9.000;2022-11-06T09:20:08;8.50;;;6.47;;
30000;SDS011;16845;48.670;9.000;2022-11-06T09:22:36;9.35;;;6.28;;
30000;SDS011;16845;48.670;9.000;2022-11-06T09:25:04;9.63;;;6.55;;
30000;SDS011;16845;48.670;9.000;2022-11-06T09:27:41;12.40;;;7.50;;
30000;SDS011;16845;48.670;9.000;2022-11-06T09:30:10;6.90;;;5.72;;
30000;SDS011;16845;48.670;9.000;2022-11-06T09:32:43;8.43;;;6.50;;
30000;SDS011;16845;48.670;9.000;2022-11-06T09:35:12;12.07;;;7.20;;
30000;SDS011;16845;48.670;9.000;2022-11-06T09:37:39;8.30;;;6.82;;
30000;SDS011;16845;48.670;9.000;2022-11-06T09:40:10;8.35;;;6.38;;
30000;SDS011;16845;48.670;9.000;2022-11-06T09:42:52;6.72;;;5.45;;
30000;SDS011;16845;48.670;9.000;2022-11-06T09:45:27;7.53;;;5.32;;
30000;SDS011;16845;48.670;9.000;2022-11-06T09:47:58;7.40;;;5.40;;
30000;SDS011;16845;48.670;9.000;2022-11-06T09:50:31;5.80;;;4.60;;
30000;SDS011;16845;48.670;9.000;2022-11-06T09:53:04;8.05;;;5.82;;
30000;SDS011;16845;48.670;9.000;2022-11-06T09:55:37;5.50;;;4.90;;
30000;SDS011;16845;48.670;9.000;2022-11-06T09:58:10;8.43;;;5.63;;
30000;SDS011;16845;48.670;9.000;2022-11-06T10:00:42;5.57;;;4.75;;
30000;SDS011;16845;48.670;9.000;2022-11-06T10:03:12;6.15;;;4.28;;
30000;SDS011;16845;48.670;9.000;2022-11-06T10:05:44;5.78;;;4.35;;
30000;SDS011;16845;48.670;9.000;2022-11-06T10:08:14;5.68;;;4.75;;
30000;SDS011;16845;48.670;9.000;2022-11-06T10:10:45;4.78;;;4.22;;
30000;SDS011;16845;48.670;9.000;2022-11-06T10:16:00;5.07;;;4.10;;
30000;SDS011;16845;48.670;9.000;2022-11-06T10:18:37;6.45;;;4.45;;
30000;SDS011;16845;48.670;9.000;2022-11-06T10:21:14;8.73;;;4.55;;
30000;SDS011;16845;48.670;9.000;2022-11-06T10:23:50;6.93;;;4.97;;
30000;SDS011;16845;48.670;9.000;2022-11-06T10:26:21;4.70;;;4.03;;
30000;SDS011;16845;48.670;9.000;2022-11-06T10:32:00;6.65;;;4.63;;
30000;SDS011;16845;48.670;9.000;2022-11-06T10:34:38;6.85;;;4.75;;
30000;SDS011;16845;48.670;9.000;2022-11-06T10:37:09;6.90;;;4.35;;
30000;SDS011;16845;48.670;9.000;2022-11-06T10:39:42;4.97;;;3.95;;
30000;SDS011;16845;48.670;9.000;2022-11-06T10:42:14;4.28;;;3.80;;
30000;SDS011;16845;48.670;9.000;2022-11-06T10:44:46;5.32;;;3.30;;
30000;SDS011;16845;48.670;9.000;2022-11-06T10:47:20;4.28;;;3.50;;
30000;SDS011;16845;48.670;9.000;2022-11-06T10:49:49;5.97;;;3.10;;
30000;SDS011;16845;48.670;9.000;2022-11-06T10:52:32;7.05;;;3.97;;
30000;SDS011;16845;48.670;9.000;2022-11-06T10:58:08;6.20;;;3.38;;
30000;SDS011;16845;48.670;9.000;2022-11-06T11:00:41;5.50;;;3.35;;
30000;SDS011;16845;48.670;9.000;2022-11-06T11:03:15;5.93;;;3.75;;
30000;SDS011;16845;48.670;9.000;2022-11-06T11:05:48;3.63;;;3.17;;
30000;SDS011;16845;48.670;9.000;2022-11-06T11:08:36;4.53;;;3.75;;
30000;SDS011;16845;48.670;9.000;2022-11-06T11:11:15;3.60;;;3.10;;
30000;SDS011;16845;48.670;9.000;2022-11-06T11:13:50;4.32;;;3.10;;
30000;SDS011;16845;48.670;9.000;2022-11-06T11:16:49;3.23;;;2.70;;
30000;SDS011;16845;48.670;9.000;2022-11-06T11:19:32;4.10;;;2.50;;
30000;SDS011;16845;48.670;9.000;2022-11-06T11:22:01;3.45;;;2.30;;
30000;SDS011;16845;48.670;9.000;2022-11-06T11:24:31;2.40;;;2.20;;
30000;SDS011;16845;48.670;9.000;2022-11-06T11:27:00;2.90;;;2.60;;
30000;SDS011;16845;48.670;9.000;2022-11-06T11:29:30;4.68;;;2.58;;
30000;SDS011;16845;48.670;9.000;2022-11-06T11:32:03;3.72;;;2.67;;
30000;SDS011;16845;48.670;9.000;2022-11-06T11:34:33;3.00;;;2.70;;
30000;SDS011;16845;48.670;9.000;2022-11-06T11:37:19;3.90;;;2.72;;
30000;SDS011;16845;48.670;9.000;2022-11-06T11:39:50;2.92;;;2.55;;
30000;SDS011;16845;48.670;9.000;2022-11-06T11:42:22;3.67;;;2.80;;
30000;SDS011;16845;48.670;9.000;2022-11-06T11:45:10;2.70;;;2.50;;
30000;SDS011;16845;48.670;9.000;2022-11-06T11:47:42;3.50;;;3.17;;
30000;SDS011;16845;48.670;9.000;2022-11-06T11:50:17;5.95;;;2.85;;
30000;SDS011;16845;48.670;9.000;2022-11-06T11:52:50;3.33;;;3.03;;
30000;SDS011;16845;48.670;9.000;2022-11-06T11:55:22;3.65;;;2.85;;
30000;SDS011;16845;48.670;9.000;2022-11-06T11:57:53;4.50;;;2.67;;
30000;SDS011;16845;48.670;9.000;2022-11-06T12:00:24;2.92;;;2.67;;
30000;SDS011;16845;48.670;9.000;2022-11-06T12:02:55;3.15;;;2.85;;
30000;SDS011;16845;48.670;9.000;2022-11-06T12:05:27;2.78;;;2.42;;
30000;SDS011;16845;48.670;9.000;2022-11-06T12:07:59;3.92;;;2.60;;
30000;SDS011;16845;48.670;9.000;2022-11-06T12:10:29;2.67;;;2.47;;
30000;SDS011;16845;48.670;9.000;2022-11-06T12:13:00;2.33;;;2.13;;
30000;SDS011;16845;48.670;9.000;2022-11-06T12:15:32;3.90;;;2.67;;
30000;SDS011;16845;48.670;9.000;2022-11-06T12:18:11;3.45;;;2.30;;
30000;SDS011;16845;48.670;9.000;2022-11-06T12:20:44;2.65;;;2.42;;
30000;SDS011;16845;48.670;9.000;2022-11-06T12:23:19;2.50;;;1.92;;
30000;SDS011;16845;48.670;9.000;2022-11-06T12:25:55;2.40;;;2.13;;
30000;SDS011;16845;48.670;9.000;2022-11-06T12:28:28;1.52;;;1.42;;
30000;SDS011;16845;48.670;9.000;2022-11-06T12:31:02;3.17;;;2.30;;
30000;SDS011;16845;48.670;9.000;2022-11-06T12:33:36;2.20;;;1.92;;
30000;SDS011;16845;48.670;9.000;2022-11-06T12:36:25;2.17;;;1.90;;
30000;SDS011;16845;48.670;9.000;2022-11-06T12:39:00;1.67;;;1.50;;
30000;SDS011;16845;48.670;9.000;2022-11-06T12:41:32;2.60;;;1.70;;
30000;SDS011;16845;48.670;9.000;2022-11-06T12:44:03;2.78;;;2.25;;
30000;SDS011;16845;48.670;9.000;2022-11-06T12:46:38;2.40;;;2.20;;
30000;SDS011;16845;48.670;9.000;2022-11-06T12:49:30;2.40;;;1.90;;
30000;SDS011;16845;48.670;9.000;2022-11-06T12:52:23;2.17;;;1.98;;
30000;SDS011;16845;48.670;9.000;2022-11-06T12:57:53;2.00;;;1.88;;
30000;SDS011;16845;48.670;9.000;2022-11-06T13:00:45;1.75;;;1.65;;
30000;SDS011;16845;48.670;9.000;2022-11-06T13:03:39;1.50;;;1.40;;
30000;SDS011;16845;48.670;9.000;2022-11-06T13:06:17;3.42;;;1.63;;
30000;SDS011;16845;48.670;9.000;2022-11-06T13:08:53;1.95;;;1.83;;
30000;SDS011;16845;48.670;9.000;2022-11-06T13:11:30;2.00;;;1.80;;
30000;SDS011;16845;48.670;9.000;2022-11-06T13:14:06;1.70;;;1.55;;
30000;SDS011;16845;48.670;9.000;2022-11-06T13:16:40;1.70;;;1.60;;
30000;SDS011;16845;48.670;9.000;2022-11-06T13:19:17;1.88;;;1.58;;
30000;SDS011;16845;48.670;9.000;2022-11-06T13:21:58;1.70;;;1.60;;
30000;SDS011;16845;48.670;9.000;2022-11-06T13:24:35;1.73;;;1.63;;
30000;SDS011;16845;48.670;9.000;2022-11-06T13:27:09;2.25;;;1.80;;
30000;SDS011;16845;48.670;9.000;2022-11-06T13:29:44;2.00;;;1.80;;
30000;SDS011;16845;48.670;9.000;2022-11-06T13:32:13;2.20;;;1.80;;
30000;SDS011;16845;48.670;9.000;2022-11-06T13:34:43;2.40;;;1.85;;
30000;SDS011;16845;48.670;9.000;2022-11-06T13:37:18;1.85;;;1.67;;
30000;SDS011;16845;48.670;9.000;2022-11-06T13:39:58;1.55;;;1.45;;
30000;SDS011;16845;48.670;9.000;2022-11-06T13:42:32;2.05;;;1.85;;
30000;SDS011;16845;48.670;9.000;2022-11-06T13:45:06;2.45;;;2.25;;
30000;SDS011;16845;48.670;9.000;2022-11-06T13:47:49;2.35;;;1.63;;
30000;SDS011;16845;48.670;9.000;2022-11-06T13:50:25;2.40;;;1.60;;
30000;SDS011;16845;48.670;9.000;2022-11-06T13:53:00;2.40;;;1.67;;
30000;SDS011;16845;48.670;9.000;2022-11-06T13:55:40;1.58;;;1.48;;
30000;SDS011;16845;48.670;9.000;2022-11-06T13:58:40;2.28;;;1.63;;
30000;SDS011;16845;48.670;9.000;2022-11-06T14:01:28;2.08;;;1.90;;
30000;SDS011;16845;48.670;9.000;2022-11-06T14:07:04;1.92;;;1.67;;
30000;SDS011;16845;48.670;9.000;2022-11-06T14:09:35;1.90;;;1.67;;
30000;SDS011;16845;48.670;9.000;2022-11-06T14:12:11;2.05;;;1.75;;
30000;SDS011;16845;48.670;9.000;2022-11-06T14:14:43;2.65;;;1.90;;
30000;SDS011;16845;48.670;9.000;2022-11-06T14:17:17;2.38;;;2.17;;
30000;SDS011;16845;48.670;9.000;2022-11-06T14:20:03;2.42;;;1.83;;
30000;SDS011;16845;48.670;9.000;2022-11-06T14:22:33;3.60;;;1.80;;
30000;SDS011;16845;48.670;9.000;2022-11-06T14:28:05;2.22;;;1.80;;
30000;SDS011;16845;48.670;9.000;2022-11-06T14:30:41;2.60;;;1.83;;
30000;SDS011;16845;48.670;9.000;2022-11-06T14:36:27;2.22;;;1.98;;
30000;SDS011;16845;48.670;9.000;2022-11-06T14:38:57;2.42;;;2.08;;
30000;SDS011;16845;48.670;9.000;2022-11-06T14:44:23;2.35;;;2.13;;
30000;SDS011;16845;48.670;9.000;2022-11-06T14:46:59;2.42;;;2.22;;
30000;SDS011;16845;48.670;9.000;2022-11-06T14:49:32;8.70;;;5.68;;
30000;SDS011;16845;48.670;9.000;2022-11-06T14:52:03;4.05;;;2.50;;
30000;SDS011;16845;48.670;9.000;2022-11-06T14:54:34;4.35;;;2.80;;
30000;SDS011;16845;48.670;9.000;2022-11-06T14:57:07;3.10;;;2.80;;
30000;SDS011;16845;48.670;9.000;2022-11-06T14:59:40;2.75;;;2.55;;
30000;SDS011;16845;48.670;9.000;2022-11-06T15:02:12;3.33;;;3.03;;
30000;SDS011;16845;48.670;9.000;2022-11-06T15:04:47;4.35;;;2.90;;
30000;SDS011;16845;48.670;9.000;2022-11-06T15:07:26;3.78;;;3.38;;
30000;SDS011;16845;48.670;9.000;2022-11-06T15:13:22;5.68;;;3.75;;
30000;SDS011;16845;48.670;9.000;2022-11-06T15:16:03;7.60;;;4.28;;
30000;SDS011;16845;48.670;9.000;2022-11-06T15:18:39;4.85;;;4.35;;
30000;SDS011;16845;48.670;9.000;2022-11-06T15:21:16;5.88;;;4.10;;
30000;SDS011;16845;48.670;9.000;2022-11-06T15:23:53;4.38;;;3.75;;
30000;SDS011;16845;48.670;9.000;2022-11-06T15:26:28;4.45;;;3.92;;
30000;SDS011;16845;48.670;9.000;2022-11-06T15:29:05;4.93;;;3.75;;
30000;SDS011;16845;48.670;9.000;2022-11-06T15:31:45;4.88;;;3.75;;
30000;SDS011;16845;48.670;9.000;2022-11-06T15:34:17;6.68;;;4.43;;
30000;SDS011;16845;48.670;9.000;2022-11-06T15:36:50;4.45;;;4.00;;
30000;SDS011;16845;48.670;9.000;2022-11-06T15:39:31;5.40;;;4.25;;
30000;SDS011;16845;48.670;9.000;2022-11-06T15:42:05;4.18;;;3.58;;
30000;SDS011;16845;48.670;9.000;2022-11-06T15:44:36;7.63;;;5.18;;